sensor_id;sensor_type;location;lat;lon;timestamp;pressure;altitude;pressure_sealevel;temperature;humidity
7337;BME280;54510;42.016;23.098;2022-12-07T00:01:27;-21489.47;;;12.91;58.41
7337;BME280;54510;42.016;23.098;2022-12-07T00:03:55;-21495.69;;;13.14;57.89
7337;BME280;54510;42.016;23.098;2022-12-07T00:06:30;-21500.25;;;13.31;57.56
7337;BME280;54510;42.016;23.098;2022-12-07T00:08:56;-21502.63;;;13.39;57.35
7337;BME280;54510;42.016;23.098;2022-12-07T00:11:22;-21504.56;;;13.47;57.09
7337;BME280;54510;42.016;23.098;2022-12-07T00:13:53;-21506.78;;;13.55;56.98
7337;BME280;54510;42.016;23.098;2022-12-07T00:16:20;-21503.59;;;13.43;56.98
7337;BME280;54510;42.016;23.098;2022-12-07T00:18:47;-21499.16;;;13.27;57.02
7337;BME280;54510;42.016;23.098;2022-12-07T00:21:19;-21500.00;;;13.30;56.96
7337;BME280;54510;42.016;23.098;2022-12-07T00:23:46;-21489.47;;;12.91;57.49
7337;BME280;54510;42.016;23.098;2022-12-07T00:26:17;-21490.16;;;12.94;58.02
7337;BME280;54510;42.016;23.098;2022-12-07T00:28:51;-21483.78;;;12.71;58.88
7337;BME280;54510;42.016;23.098;2022-12-07T00:31:19;-21482.53;;;12.66;58.83
7337;BME280;54510;42.016;23.098;2022-12-07T00:33:45;-21481.84;;;12.63;59.02
7337;BME280;54510;42.016;23.098;2022-12-07T00:36:14;-21486.00;;;12.79;58.68
7337;BME280;54510;42.016;23.098;2022-12-07T00:38:40;-21486.00;;;12.79;58.35
7337;BME280;54510;42.016;23.098;2022-12-07T00:41:09;-21488.91;;;12.89;58.18
7337;BME280;54510;42.016;23.098;2022-12-07T00:43:35;-21491.97;;;13.00;58.07
7337;BME280;54510;42.016;23.098;2022-12-07T00:46:00;-21487.38;;;12.84;58.54
7337;BME280;54510;42.016;23.098;2022-12-07T00:48:26;-21488.34;;;12.87;58.65
7337;BME280;54510;42.016;23.098;2022-12-07T00:50:52;-21492.94;;;13.04;58.58
7337;BME280;54510;42.016;23.098;2022-12-07T00:53:17;-21488.78;;;12.89;58.83
7337;BME280;54510;42.016;23.098;2022-12-07T00:55:43;-21484.22;;;12.72;59.65
7337;BME280;54510;42.016;23.098;2022-12-07T00:58:09;-21479.22;;;12.54;59.69
7337;BME280;54510;42.016;23.098;2022-12-07T01:00:36;-21477.16;;;12.46;59.69
7337;BME280;54510;42.016;23.098;2022-12-07T01:03:02;-21477.84;;;12.49;60.41
7337;BME280;54510;42.016;23.098;2022-12-07T01:05:27;-21490.31;;;12.94;59.16
7337;BME280;54510;42.016;23.098;2022-12-07T01:07:53;-21493.34;;;13.05;58.63
7337;BME280;54510;42.016;23.098;2022-12-07T01:10:18;-21492.38;;;13.02;58.68
7337;BME280;54510;42.016;23.098;2022-12-07T01:12:43;-21492.38;;;13.02;58.64
7337;BME280;54510;42.016;23.098;2022-12-07T01:15:09;-21490.84;;;12.96;59.04
7337;BME280;54510;42.016;23.098;2022-12-07T01:17:35;-21484.63;;;12.74;60.02
7337;BME280;54510;42.016;23.098;2022-12-07T01:20:01;-21478.94;;;12.53;60.13
7337;BME280;54510;42.016;23.098;2022-12-07T01:22:26;-21477.97;;;12.49;60.73
7337;BME280;54510;42.016;23.098;2022-12-07T01:24:52;-21462.31;;;11.92;61.59
7337;BME280;54510;42.016;23.098;2022-12-07T01:27:17;-21467.16;;;12.10;61.84
7337;BME280;54510;42.016;23.098;2022-12-07T01:29:43;-21476.88;;;12.45;61.02
7337;BME280;54510;42.016;23.098;2022-12-07T01:32:08;-21478.53;;;12.51;60.41
7337;BME280;54510;42.016;23.098;2022-12-07T01:34:33;-21474.38;;;12.36;60.72
7337;BME280;54510;42.016;23.098;2022-12-07T01:36:59;-21478.25;;;12.50;60.70
7337;BME280;54510;42.016;23.098;2022-12-07T01:39:24;-21482.81;;;12.67;60.34
7337;BME280;54510;42.016;23.098;2022-12-07T01:41:50;-21483.25;;;12.69;60.22
7337;BME280;54510;42.016;23.098;2022-12-07T01:46:44;-21474.50;;;12.37;61.31
7337;BME280;54510;42.016;23.098;2022-12-07T01:49:17;-21470.22;;;12.21;61.93
7337;BME280;54510;42.016;23.098;2022-12-07T01:51:46;-21470.78;;;12.23;61.84
7337;BME280;54510;42.016;23.098;2022-12-07T01:54:13;-21472.72;;;12.30;61.74
7337;BME280;54510;42.016;23.098;2022-12-07T01:56:44;-21473.97;;;12.35;62.04
7337;BME280;54510;42.016;23.098;2022-12-07T01:59:13;-21476.31;;;12.43;61.38
7337;BME280;54510;42.016;23.098;2022-12-07T02:01:38;-21480.06;;;12.57;61.26
7337;BME280;54510;42.016;23.098;2022-12-07T02:04:05;-21479.63;;;12.55;61.77
7337;BME280;54510;42.016;23.098;2022-12-07T02:06:31;-21480.88;;;12.60;61.71
7337;BME280;54510;42.016;23.098;2022-12-07T02:08:56;-21484.91;;;12.75;61.09
7337;BME280;54510;42.016;23.098;2022-12-07T02:11:22;-21481.03;;;12.60;61.59
7337;BME280;54510;42.016;23.098;2022-12-07T02:13:48;-21479.09;;;12.53;61.49
7337;BME280;54510;42.016;23.098;2022-12-07T02:27:47;-21461.91;;;11.91;62.18
7337;BME280;54510;42.016;23.098;2022-12-07T02:30:21;-21459.53;;;11.82;63.07
7337;BME280;54510;42.016;23.098;2022-12-07T02:35:51;-21468.69;;;12.15;61.99
7337;BME280;54510;42.016;23.098;2022-12-07T02:38:28;-21468.56;;;12.15;62.29
7337;BME280;54510;42.016;23.098;2022-12-07T02:41:11;-21472.84;;;12.31;61.99
7337;BME280;54510;42.016;23.098;2022-12-07T02:46:14;-21469.81;;;12.19;61.93
7337;BME280;54510;42.016;23.098;2022-12-07T02:48:41;-21468.56;;;12.15;61.77
7337;BME280;54510;42.016;23.098;2022-12-07T02:51:08;-21466.63;;;12.08;62.84
7337;BME280;54510;42.016;23.098;2022-12-07T02:53:43;-21470.91;;;12.23;62.73
7337;BME280;54510;42.016;23.098;2022-12-07T03:02:15;-21480.75;;;12.59;61.49
7337;BME280;54510;42.016;23.098;2022-12-07T03:07:49;-21477.69;;;12.48;61.51
7337;BME280;54510;42.016;23.098;2022-12-07T03:10:24;-21479.63;;;12.55;61.15
7337;BME280;54510;42.016;23.098;2022-12-07T03:13:07;-21482.00;;;12.64;60.88
7337;BME280;54510;42.016;23.098;2022-12-07T03:18:14;-21482.97;;;12.68;60.42
7337;BME280;54510;42.016;23.098;2022-12-07T03:20:44;-21482.28;;;12.65;60.64
7337;BME280;54510;42.016;23.098;2022-12-07T03:23:12;-21481.16;;;12.61;60.63
7337;BME280;54510;42.016;23.098;2022-12-07T03:25:41;-21478.94;;;12.53;60.71
7337;BME280;54510;42.016;23.098;2022-12-07T03:28:10;-21468.97;;;12.16;62.22
7337;BME280;54510;42.016;23.098;2022-12-07T03:31:04;-21475.63;;;12.41;61.25
7337;BME280;54510;42.016;23.098;2022-12-07T03:33:46;-21475.91;;;12.42;61.17
7337;BME280;54510;42.016;23.098;2022-12-07T03:36:26;-21461.50;;;11.89;61.97
7337;BME280;54510;42.016;23.098;2022-12-07T03:39:00;-21466.06;;;12.06;61.86
7337;BME280;54510;42.016;23.098;2022-12-07T03:41:31;-21457.47;;;11.74;62.54
7337;BME280;54510;42.016;23.098;2022-12-07T03:43:59;-21454.84;;;11.65;62.76
7337;BME280;54510;42.016;23.098;2022-12-07T03:49:07;-21445.53;;;11.31;63.50
7337;BME280;54510;42.016;23.098;2022-12-07T03:54:15;-21448.72;;;11.42;63.92
7337;BME280;54510;42.016;23.098;2022-12-07T03:56:45;-21444.00;;;11.25;64.04
7337;BME280;54510;42.016;23.098;2022-12-07T03:59:12;-21449.84;;;11.46;63.47
7337;BME280;54510;42.016;23.098;2022-12-07T04:01:42;-21447.91;;;11.39;63.22
7337;BME280;54510;42.016;23.098;2022-12-07T04:04:07;-21455.53;;;11.67;62.77
7337;BME280;54510;42.016;23.098;2022-12-07T04:06:33;-21455.66;;;11.68;62.30
7337;BME280;54510;42.016;23.098;2022-12-07T04:08:58;-21442.63;;;11.20;63.44
7337;BME280;54510;42.016;23.098;2022-12-07T04:11:24;-21446.78;;;11.35;63.20
7337;BME280;54510;42.016;23.098;2022-12-07T04:13:49;-21443.47;;;11.23;63.55
7337;BME280;54510;42.016;23.098;2022-12-07T04:16:33;-21451.50;;;11.53;62.38
7337;BME280;54510;42.016;23.098;2022-12-07T04:18:58;-21449.28;;;11.44;62.89
7337;BME280;54510;42.016;23.098;2022-12-07T04:21:24;-21454.56;;;11.64;62.16
7337;BME280;54510;42.016;23.098;2022-12-07T04:23:49;-21455.38;;;11.67;62.10
7337;BME280;54510;42.016;23.098;2022-12-07T04:26:14;-21467.59;;;12.11;60.92
7337;BME280;54510;42.016;23.098;2022-12-07T04:28:40;-21464.69;;;12.01;60.58
7337;BME280;54510;42.016;23.098;2022-12-07T04:31:05;-21471.19;;;12.24;60.32
7337;BME280;54510;42.016;23.098;2022-12-07T04:33:30;-21476.03;;;12.42;59.76
7337;BME280;54510;42.016;23.098;2022-12-07T04:35:56;-21465.78;;;12.05;60.68
7337;BME280;54510;42.016;23.098;2022-12-07T04:38:21;-21461.06;;;11.87;61.07
7337;BME280;54510;42.016;23.098;2022-12-07T04:40:47;-21460.66;;;11.86;61.50
7337;BME280;54510;42.016;23.098;2022-12-07T04:43:12;-21464.25;;;11.99;61.25
7337;BME280;54510;42.016;23.098;2022-12-07T04:45:37;-21461.50;;;11.89;61.85
7337;BME280;54510;42.016;23.098;2022-12-07T04:48:03;-21466.34;;;12.07;62.25
7337;BME280;54510;42.016;23.098;2022-12-07T04:50:28;-21473.69;;;12.34;61.13
7337;BME280;54510;42.016;23.098;2022-12-07T04:52:53;-21477.00;;;12.46;60.64
7337;BME280;54510;42.016;23.098;2022-12-07T04:55:19;-21478.81;;;12.52;60.11
7337;BME280;54510;42.016;23.098;2022-12-07T04:57:44;-21472.56;;;12.30;60.35
7337;BME280;54510;42.016;23.098;2022-12-07T05:00:10;-21473.41;;;12.33;60.35
7337;BME280;54510;42.016;23.098;2022-12-07T05:02:35;-21469.09;;;12.17;60.67
7337;BME280;54510;42.016;23.098;2022-12-07T05:05:01;-21479.22;;;12.54;59.86
7337;BME280;54510;42.016;23.098;2022-12-07T05:07:26;-21480.88;;;12.60;59.50
7337;BME280;54510;42.016;23.098;2022-12-07T05:09:52;-21482.53;;;12.66;59.25
7337;BME280;54510;42.016;23.098;2022-12-07T05:12:17;-21483.09;;;12.68;59.20
7337;BME280;54510;42.016;23.098;2022-12-07T05:14:42;-21484.47;;;12.73;58.59
7337;BME280;54510;42.016;23.098;2022-12-07T05:17:08;-21478.13;;;12.50;59.19
7337;BME280;54510;42.016;23.098;2022-12-07T05:19:33;-21483.94;;;12.71;59.38
7337;BME280;54510;42.016;23.098;2022-12-07T05:21:58;-21485.19;;;12.76;59.14
7337;BME280;54510;42.016;23.098;2022-12-07T05:24:24;-21479.63;;;12.55;59.66
7337;BME280;54510;42.016;23.098;2022-12-07T05:26:49;-21483.50;;;12.70;59.49
7337;BME280;54510;42.016;23.098;2022-12-07T05:29:16;-21481.16;;;12.61;58.98
7337;BME280;54510;42.016;23.098;2022-12-07T05:31:42;-21473.25;;;12.32;60.21
7337;BME280;54510;42.016;23.098;2022-12-07T05:34:08;-21480.06;;;12.57;60.12
7337;BME280;54510;42.016;23.098;2022-12-07T05:36:33;-21482.41;;;12.65;59.69
7337;BME280;54510;42.016;23.098;2022-12-07T05:38:59;-21479.78;;;12.56;59.69
7337;BME280;54510;42.016;23.098;2022-12-07T05:41:24;-21479.22;;;12.54;59.41
7337;BME280;54510;42.016;23.098;2022-12-07T05:44:09;-21468.41;;;12.14;60.12
7337;BME280;54510;42.016;23.098;2022-12-07T05:46:34;-21466.34;;;12.07;60.77
7337;BME280;54510;42.016;23.098;2022-12-07T05:49:00;-21467.31;;;12.10;60.57
7337;BME280;54510;42.016;23.098;2022-12-07T05:51:26;-21468.56;;;12.15;60.66
7337;BME280;54510;42.016;23.098;2022-12-07T05:53:52;-21461.63;;;11.90;61.22
7337;BME280;54510;42.016;23.098;2022-12-07T05:56:17;-21470.22;;;12.21;60.59
7337;BME280;54510;42.016;23.098;2022-12-07T05:58:42;-21454.56;;;11.64;61.64
7337;BME280;54510;42.016;23.098;2022-12-07T06:01:27;-21463.44;;;11.96;61.83
7337;BME280;54510;42.016;23.098;2022-12-07T06:03:52;-21471.59;;;12.26;60.78
7337;BME280;54510;42.016;23.098;2022-12-07T06:06:18;-21476.16;;;12.43;60.41
7337;BME280;54510;42.016;23.098;2022-12-07T06:08:43;-21472.16;;;12.28;60.78
7337;BME280;54510;42.016;23.098;2022-12-07T06:11:08;-21468.97;;;12.16;60.48
7337;BME280;54510;42.016;23.098;2022-12-07T06:13:52;-21467.16;;;12.10;60.85
7337;BME280;54510;42.016;23.098;2022-12-07T06:16:18;-21467.88;;;12.12;60.40
7337;BME280;54510;42.016;23.098;2022-12-07T06:18:43;-21472.84;;;12.31;60.43
7337;BME280;54510;42.016;23.098;2022-12-07T06:21:09;-21472.28;;;12.28;60.94
7337;BME280;54510;42.016;23.098;2022-12-07T06:23:34;-21473.41;;;12.33;60.69
7337;BME280;54510;42.016;23.098;2022-12-07T06:25:59;-21476.03;;;12.42;60.48
7337;BME280;54510;42.016;23.098;2022-12-07T06:28:25;-21475.63;;;12.41;60.52
7337;BME280;54510;42.016;23.098;2022-12-07T06:31:00;-21479.09;;;12.53;60.38
7337;BME280;54510;42.016;23.098;2022-12-07T06:33:26;-21481.03;;;12.60;60.30
7337;BME280;54510;42.016;23.098;2022-12-07T06:35:52;-21479.78;;;12.56;59.95
7337;BME280;54510;42.016;23.098;2022-12-07T06:38:18;-21478.38;;;12.51;60.06
7337;BME280;54510;42.016;23.098;2022-12-07T06:40:43;-21479.91;;;12.56;60.28
7337;BME280;54510;42.016;23.098;2022-12-07T06:43:08;-21479.09;;;12.53;60.32
7337;BME280;54510;42.016;23.098;2022-12-07T06:45:34;-21484.91;;;12.75;60.13
7337;BME280;54510;42.016;23.098;2022-12-07T06:47:59;-21485.31;;;12.76;59.62
7337;BME280;54510;42.016;23.098;2022-12-07T06:50:25;-21488.63;;;12.88;59.54
7337;BME280;54510;42.016;23.098;2022-12-07T06:52:51;-21490.56;;;12.95;59.38
7337;BME280;54510;42.016;23.098;2022-12-07T06:55:17;-21492.50;;;13.02;58.89
7337;BME280;54510;42.016;23.098;2022-12-07T06:57:42;-21491.53;;;12.99;59.10
7337;BME280;54510;42.016;23.098;2022-12-07T07:00:08;-21493.63;;;13.06;59.16
7337;BME280;54510;42.016;23.098;2022-12-07T07:02:34;-21496.94;;;13.19;58.95
7337;BME280;54510;42.016;23.098;2022-12-07T07:04:59;-21496.13;;;13.16;59.06
7337;BME280;54510;42.016;23.098;2022-12-07T07:07:25;-21487.25;;;12.83;60.59
7337;BME280;54510;42.016;23.098;2022-12-07T07:09:50;-21496.41;;;13.17;60.40
7337;BME280;54510;42.016;23.098;2022-12-07T07:12:15;-21496.41;;;13.17;59.87
7337;BME280;54510;42.016;23.098;2022-12-07T07:14:41;-21492.94;;;13.04;60.16
7337;BME280;54510;42.016;23.098;2022-12-07T07:17:07;-21499.84;;;13.29;59.03
7337;BME280;54510;42.016;23.098;2022-12-07T07:19:32;-21503.88;;;13.44;58.58
7337;BME280;54510;42.016;23.098;2022-12-07T07:21:57;-21509.66;;;13.65;57.82
7337;BME280;54510;42.016;23.098;2022-12-07T07:24:23;-21506.50;;;13.54;57.83
7337;BME280;54510;42.016;23.098;2022-12-07T07:26:48;-21513.53;;;13.79;57.53
7337;BME280;54510;42.016;23.098;2022-12-07T07:29:13;-21511.47;;;13.72;57.46
7337;BME280;54510;42.016;23.098;2022-12-07T07:31:39;-21512.16;;;13.74;57.59
7337;BME280;54510;42.016;23.098;2022-12-07T07:34:04;-21514.09;;;13.81;57.37
7337;BME280;54510;42.016;23.098;2022-12-07T07:36:30;-21520.72;;;14.06;57.25
7337;BME280;54510;42.016;23.098;2022-12-07T07:38:55;-21524.47;;;14.19;56.73
7337;BME280;54510;42.016;23.098;2022-12-07T07:41:20;-21524.59;;;14.20;56.86
7337;BME280;54510;42.016;23.098;2022-12-07T07:43:46;-21524.59;;;14.20;56.59
7337;BME280;54510;42.016;23.098;2022-12-07T07:46:11;-21522.94;;;14.14;56.71
7337;BME280;54510;42.016;23.098;2022-12-07T07:48:36;-21517.41;;;13.94;56.66
7337;BME280;54510;42.016;23.098;2022-12-07T07:51:05;-21524.31;;;14.19;56.94
7337;BME280;54510;42.016;23.098;2022-12-07T07:53:32;-21523.78;;;14.17;56.74
7337;BME280;54510;42.016;23.098;2022-12-07T07:55:57;-21531.53;;;14.45;56.42
7337;BME280;54510;42.016;23.098;2022-12-07T07:58:23;-21539.38;;;14.74;55.69
7337;BME280;54510;42.016;23.098;2022-12-07T08:00:49;-21543.13;;;14.88;55.15
7337;BME280;54510;42.016;23.098;2022-12-07T08:03:14;-21541.59;;;14.82;55.56
7337;BME280;54510;42.016;23.098;2022-12-07T08:05:40;-21548.63;;;15.08;54.70
7337;BME280;54510;42.016;23.098;2022-12-07T08:08:06;-21548.38;;;15.07;54.56
7337;BME280;54510;42.016;23.098;2022-12-07T08:10:31;-21556.09;;;15.35;53.97
7337;BME280;54510;42.016;23.098;2022-12-07T08:12:57;-21552.78;;;15.23;54.93
7337;BME280;54510;42.016;23.098;2022-12-07T08:15:43;-21562.44;;;15.59;53.83
7337;BME280;54510;42.016;23.098;2022-12-07T08:18:09;-21566.31;;;15.73;53.72
7337;BME280;54510;42.016;23.098;2022-12-07T08:20:35;-21569.47;;;15.85;53.33
7337;BME280;54510;42.016;23.098;2022-12-07T08:23:01;-21570.31;;;15.88;53.55
7337;BME280;54510;42.016;23.098;2022-12-07T08:25:27;-21558.03;;;15.42;54.03
7337;BME280;54510;42.016;23.098;2022-12-07T08:27:53;-21570.16;;;15.87;53.71
7337;BME280;54510;42.016;23.098;2022-12-07T08:30:20;-21568.94;;;15.83;54.01
7337;BME280;54510;42.016;23.098;2022-12-07T08:32:46;-21566.44;;;15.73;54.03
7337;BME280;54510;42.016;23.098;2022-12-07T08:35:12;-21575.41;;;16.06;53.25
7337;BME280;54510;42.016;23.098;2022-12-07T08:37:38;-21577.75;;;16.15;53.12
7337;BME280;54510;42.016;23.098;2022-12-07T08:40:05;-21584.78;;;16.41;52.27
7337;BME280;54510;42.016;23.098;2022-12-07T08:42:31;-21585.19;;;16.42;52.33
7337;BME280;54510;42.016;23.098;2022-12-07T08:45:06;-21587.25;;;16.50;52.67
7337;BME280;54510;42.016;23.098;2022-12-07T08:47:32;-21588.38;;;16.54;52.43
7337;BME280;54510;42.016;23.098;2022-12-07T08:49:58;-21590.03;;;16.60;52.25
7337;BME280;54510;42.016;23.098;2022-12-07T08:52:29;-21593.19;;;16.72;52.08
7337;BME280;54510;42.016;23.098;2022-12-07T08:54:55;-21596.63;;;16.84;51.96
7337;BME280;54510;42.016;23.098;2022-12-07T08:57:21;-21597.31;;;16.87;51.68
7337;BME280;54510;42.016;23.098;2022-12-07T08:59:46;-21599.66;;;16.95;51.24
7337;BME280;54510;42.016;23.098;2022-12-07T09:02:12;-21600.91;;;17.00;50.77
7337;BME280;54510;42.016;23.098;2022-12-07T09:04:37;-21606.41;;;17.20;50.92
7337;BME280;54510;42.016;23.098;2022-12-07T09:07:03;-21606.53;;;17.21;49.93
7337;BME280;54510;42.016;23.098;2022-12-07T09:09:29;-21611.78;;;17.40;50.56
7337;BME280;54510;42.016;23.098;2022-12-07T09:11:54;-21612.06;;;17.41;50.04
7337;BME280;54510;42.016;23.098;2022-12-07T09:14:20;-21602.41;;;17.06;50.84
7337;BME280;54510;42.016;23.098;2022-12-07T09:16:45;-21604.91;;;17.15;50.15
7337;BME280;54510;42.016;23.098;2022-12-07T09:19:11;-21604.34;;;17.13;50.08
7337;BME280;54510;42.016;23.098;2022-12-07T09:21:36;-21612.31;;;17.42;49.61
7337;BME280;54510;42.016;23.098;2022-12-07T09:24:02;-21615.63;;;17.54;49.42
7337;BME280;54510;42.016;23.098;2022-12-07T09:26:27;-21607.09;;;17.23;49.68
7337;BME280;54510;42.016;23.098;2022-12-07T09:28:53;-21610.13;;;17.34;49.45
7337;BME280;54510;42.016;23.098;2022-12-07T09:31:18;-21612.06;;;17.41;49.47
7337;BME280;54510;42.016;23.098;2022-12-07T09:33:43;-21601.44;;;17.02;50.10
7337;BME280;54510;42.016;23.098;2022-12-07T09:36:09;-21594.97;;;16.78;50.55
7337;BME280;54510;42.016;23.098;2022-12-07T09:38:35;-21593.59;;;16.73;50.23
7337;BME280;54510;42.016;23.098;2022-12-07T09:41:07;-21603.25;;;17.09;50.16
7337;BME280;54510;42.016;23.098;2022-12-07T09:43:35;-21610.13;;;17.34;49.47
7337;BME280;54510;42.016;23.098;2022-12-07T09:46:01;-21607.66;;;17.25;49.41
7337;BME280;54510;42.016;23.098;2022-12-07T09:48:33;-21608.47;;;17.28;49.35
7337;BME280;54510;42.016;23.098;2022-12-07T09:51:01;-21615.91;;;17.55;49.45
7337;BME280;54510;42.016;23.098;2022-12-07T09:53:29;-21621.56;;;17.76;48.86
7337;BME280;54510;42.016;23.098;2022-12-07T09:55:57;-21626.91;;;17.96;48.14
7337;BME280;54510;42.016;23.098;2022-12-07T09:58:27;-21615.91;;;17.55;48.49
7337;BME280;54510;42.016;23.098;2022-12-07T10:00:57;-21611.78;;;17.40;49.20
7337;BME280;54510;42.016;23.098;2022-12-07T10:03:26;-21614.81;;;17.51;49.08
7337;BME280;54510;42.016;23.098;2022-12-07T10:05:52;-21621.97;;;17.77;49.35
7337;BME280;54510;42.016;23.098;2022-12-07T10:08:18;-21614.38;;;17.50;48.97
7337;BME280;54510;42.016;23.098;2022-12-07T10:10:45;-21612.06;;;17.41;50.05
7337;BME280;54510;42.016;23.098;2022-12-07T10:13:19;-21628.97;;;18.03;48.66
7337;BME280;54510;42.016;23.098;2022-12-07T10:15:53;-21615.22;;;17.53;48.89
7337;BME280;54510;42.016;23.098;2022-12-07T10:18:36;-21619.91;;;17.70;50.43
7337;BME280;54510;42.016;23.098;2022-12-07T10:23:39;-21610.69;;;17.36;49.87
7337;BME280;54510;42.016;23.098;2022-12-07T10:26:30;-21617.28;;;17.60;48.93
7337;BME280;54510;42.016;23.098;2022-12-07T10:28:59;-21623.06;;;17.82;48.70
7337;BME280;54510;42.016;23.098;2022-12-07T10:31:25;-21631.59;;;18.13;48.27
7337;BME280;54510;42.016;23.098;2022-12-07T10:33:58;-21631.19;;;18.11;48.61
7337;BME280;54510;42.016;23.098;2022-12-07T10:36:36;-21629.94;;;18.07;47.88
7337;BME280;54510;42.016;23.098;2022-12-07T10:42:02;-21641.91;;;18.51;47.38
7337;BME280;54510;42.016;23.098;2022-12-07T10:44:31;-21644.94;;;18.62;47.22
7337;BME280;54510;42.016;23.098;2022-12-07T10:57:53;-21650.56;;;18.83;46.33
7337;BME280;54510;42.016;23.098;2022-12-07T11:00:28;-21635.16;;;18.26;47.24
7337;BME280;54510;42.016;23.098;2022-12-07T11:03:15;-21646.16;;;18.67;46.61
7337;BME280;54510;42.016;23.098;2022-12-07T11:05:52;-21643.41;;;18.57;46.76
7337;BME280;54510;42.016;23.098;2022-12-07T11:08:44;-21641.91;;;18.51;47.09
7337;BME280;54510;42.016;23.098;2022-12-07T11:11:14;-21633.94;;;18.22;47.71
7337;BME280;54510;42.016;23.098;2022-12-07T11:16:38;-21651.78;;;18.87;45.88
7337;BME280;54510;42.016;23.098;2022-12-07T11:19:20;-21651.94;;;18.88;46.32
7337;BME280;54510;42.016;23.098;2022-12-07T11:21:57;-21652.88;;;18.91;45.87
7337;BME280;54510;42.016;23.098;2022-12-07T11:24:56;-21647.94;;;18.73;46.58
7337;BME280;54510;42.016;23.098;2022-12-07T11:28:03;-21650.84;;;18.84;45.92
7337;BME280;54510;42.016;23.098;2022-12-07T11:30:45;-21648.91;;;18.77;46.39
7337;BME280;54510;42.016;23.098;2022-12-07T11:33:29;-21656.19;;;19.04;45.97
7337;BME280;54510;42.016;23.098;2022-12-07T11:39:01;-21654.41;;;18.97;46.58
7337;BME280;54510;42.016;23.098;2022-12-07T11:41:31;-21652.75;;;18.91;46.36
7337;BME280;54510;42.016;23.098;2022-12-07T11:44:15;-21646.03;;;18.66;46.64
7337;BME280;54510;42.016;23.098;2022-12-07T11:47:00;-21649.19;;;18.78;46.71
7337;BME280;54510;42.016;23.098;2022-12-07T11:49:45;-21654.13;;;18.96;46.08
7337;BME280;54510;42.016;23.098;2022-12-07T11:52:25;-21663.59;;;19.31;45.68
7337;BME280;54510;42.016;23.098;2022-12-07T11:54:53;-21663.88;;;19.32;45.51
7337;BME280;54510;42.016;23.098;2022-12-07T11:57:36;-21674.31;;;19.70;45.15
7337;BME280;54510;42.016;23.098;2022-12-07T12:00:08;-21665.25;;;19.37;45.21
7337;BME280;54510;42.016;23.098;2022-12-07T12:02:40;-21666.75;;;19.43;45.40
7337;BME280;54510;42.016;23.098;2022-12-07T12:05:18;-21666.75;;;19.43;45.19
7337;BME280;54510;42.016;23.098;2022-12-07T12:07:46;-21678.56;;;19.86;44.65
7337;BME280;54510;42.016;23.098;2022-12-07T12:10:26;-21678.28;;;19.85;44.58
7337;BME280;54510;42.016;23.098;2022-12-07T12:15:57;-21679.25;;;19.89;44.08
7337;BME280;54510;42.016;23.098;2022-12-07T12:18:46;-21686.50;;;20.16;44.03
7337;BME280;54510;42.016;23.098;2022-12-07T12:21:20;-21690.22;;;20.29;44.03
7337;BME280;54510;42.016;23.098;2022-12-07T12:23:50;-21689.81;;;20.28;43.42
7337;BME280;54510;42.016;23.098;2022-12-07T12:26:24;-21685.16;;;20.10;43.11
7337;BME280;54510;42.016;23.098;2022-12-07T12:28:55;-21671.00;;;19.58;43.93
7337;BME280;54510;42.016;23.098;2022-12-07T12:33:54;-21674.44;;;19.71;44.11
7337;BME280;54510;42.016;23.098;2022-12-07T12:51:52;-21666.34;;;19.41;44.11
7337;BME280;54510;42.016;23.098;2022-12-07T13:08:01;-21663.59;;;19.31;43.77
7337;BME280;54510;42.016;23.098;2022-12-07T13:31:47;-21672.81;;;19.65;41.00
7337;BME280;54510;42.016;23.098;2022-12-07T13:34:34;-21672.25;;;19.63;41.54
7337;BME280;54510;42.016;23.098;2022-12-07T13:37:10;-21674.84;;;19.72;41.20
7337;BME280;54510;42.016;23.098;2022-12-07T13:39:46;-21669.50;;;19.53;41.22
7337;BME280;54510;42.016;23.098;2022-12-07T13:42:31;-21666.91;;;19.43;41.44
7337;BME280;54510;42.016;23.098;2022-12-07T13:44:59;-21670.75;;;19.57;41.13
7337;BME280;54510;42.016;23.098;2022-12-07T13:47:35;-21671.56;;;19.60;41.46
7337;BME280;54510;42.016;23.098;2022-12-07T13:50:26;-21652.88;;;18.91;42.45
7337;BME280;54510;42.016;23.098;2022-12-07T13:52:55;-21654.69;;;18.98;42.20
7337;BME280;54510;42.016;23.098;2022-12-07T13:55:21;-21652.47;;;18.90;42.61
7337;BME280;54510;42.016;23.098;2022-12-07T13:57:51;-21654.41;;;18.97;43.51
7337;BME280;54510;42.016;23.098;2022-12-07T14:00:22;-21652.47;;;18.90;44.98
7337;BME280;54510;42.016;23.098;2022-12-07T14:05:29;-21639.44;;;18.42;48.10
7337;BME280;54510;42.016;23.098;2022-12-07T14:08:03;-21634.06;;;18.22;49.11
7337;BME280;54510;42.016;23.098;2022-12-07T14:10:35;-21640.53;;;18.46;48.79
7337;BME280;54510;42.016;23.098;2022-12-07T14:13:17;-21633.50;;;18.20;49.71
7337;BME280;54510;42.016;23.098;2022-12-07T14:15:50;-21630.34;;;18.08;50.08
7337;BME280;54510;42.016;23.098;2022-12-07T14:23:32;-21632.69;;;18.17;49.93
7337;BME280;54510;42.016;23.098;2022-12-07T14:26:11;-21626.78;;;17.95;51.09
7337;BME280;54510;42.016;23.098;2022-12-07T14:28:38;-21635.44;;;18.27;50.14
7337;BME280;54510;42.016;23.098;2022-12-07T14:31:14;-21632.56;;;18.16;50.53
7337;BME280;54510;42.016;23.098;2022-12-07T14:33:40;-21634.88;;;18.25;49.95
7337;BME280;54510;42.016;23.098;2022-12-07T14:36:09;-21624.44;;;17.87;51.32
7337;BME280;54510;42.016;23.098;2022-12-07T14:38:35;-21621.56;;;17.76;51.48
7337;BME280;54510;42.016;23.098;2022-12-07T14:41:01;-21623.88;;;17.85;51.49
7337;BME280;54510;42.016;23.098;2022-12-07T14:43:45;-21629.94;;;18.07;51.00
7337;BME280;54510;42.016;23.098;2022-12-07T14:46:10;-21618.94;;;17.66;51.97
7337;BME280;54510;42.016;23.098;2022-12-07T14:48:36;-21622.38;;;17.79;51.52
7337;BME280;54510;42.016;23.098;2022-12-07T14:51:02;-21608.47;;;17.28;53.19
7337;BME280;54510;42.016;23.098;2022-12-07T14:53:34;-21616.72;;;17.58;52.59
7337;BME280;54510;42.016;23.098;2022-12-07T14:56:01;-21605.59;;;17.17;53.69
7337;BME280;54510;42.016;23.098;2022-12-07T14:58:26;-21608.75;;;17.29;53.14
7337;BME280;54510;42.016;23.098;2022-12-07T15:00:52;-21612.47;;;17.43;53.21
7337;BME280;54510;42.016;23.098;2022-12-07T15:03:17;-21606.81;;;17.22;53.67